Time;durP1;ratioP1;P1;durP2;ratioP2;P2;SDS_P1;SDS_P2;PMS_P1;PMS_P2;Temp;Humidity;BMP_temperature;BMP_pressure;BME280_temperature;BME280_humidity;BME280_pressure;Samples;Min_cycle;Max_cycle;Signal;HPM_P1;HPM_P2
2021/09/06 18:24:14;;;;;;;;;10.00;10.00;;;;;28.21;40.08;101873.84;4931241;23;46273;-60
2021/09/06 18:26:40;;;;;;;;;12.00;8.75;;;;;28.15;39.92;101870.00;4944340;28;45444;-61
2021/09/06 18:29:06;;;;;;;;;12.00;11.00;;;;;28.14;40.56;101876.44;4948802;28;45524;-62
2021/09/06 18:31:32;;;;;;;;;11.75;11.00;;;;;28.10;40.83;101877.78;4949027;28;45393;-60
2021/09/06 18:33:57;;;;;;;;;10.75;10.00;;;;;28.07;40.30;101879.00;4942133;28;45463;-60
2021/09/06 18:36:23;;;;;;;;;10.75;9.00;;;;;28.05;40.38;101882.94;4927919;28;45446;-63
2021/09/06 18:38:50;;;;;;;;;13.00;9.00;;;;;28.00;40.31;101879.91;4933193;28;45413;-63
2021/09/06 18:41:16;;;;;;;;;12.50;11.00;;;;;27.98;40.48;101877.38;4937291;28;45321;-62
2021/09/06 18:43:41;;;;;;;;;9.25;9.25;;;;;27.94;40.32;101881.44;4940880;28;45274;-64
2021/09/06 18:46:07;;;;;;;;;12.00;10.50;;;;;27.92;40.89;101883.50;4935924;28;45549;-63
2021/09/06 18:48:34;;;;;;;;;10.75;7.75;;;;;27.90;40.46;101887.41;4932751;28;45368;-62
2021/09/06 18:50:59;;;;;;;;;11.25;10.75;;;;;27.86;40.56;101889.59;4932503;28;45347;-63
2021/09/06 18:53:31;;;;;;;;;9.50;9.50;;;;;27.83;41.07;101889.13;4926218;28;45526;-61
2021/09/06 18:55:57;;;;;;;;;10.25;10.25;;;;;27.79;40.78;101894.03;4941277;28;46181;-63
2021/09/06 18:58:23;;;;;;;;;9.00;8.50;;;;;27.77;41.28;101896.09;4944051;28;45255;-63
2021/09/06 19:00:48;;;;;;;;;17.00;11.00;;;;;27.73;41.25;101905.59;4943981;28;45430;-62
2021/09/06 19:03:14;;;;;;;;;11.00;11.00;;;;;27.71;41.38;101907.59;4958798;28;45244;-63
2021/09/06 19:05:39;;;;;;;;;10.75;10.00;;;;;27.68;41.60;101907.97;4926989;28;45342;-60
2021/09/06 19:08:05;;;;;;;;;11.50;11.00;;;;;27.65;42.11;101910.97;4944302;28;46182;-60
2021/09/06 19:10:33;;;;;;;;;11.75;10.50;;;;;27.62;42.35;101920.28;4943393;28;45279;-62
2021/09/06 19:12:59;;;;;;;;;12.25;11.50;;;;;27.60;42.30;101924.19;4944100;28;45580;-58
2021/09/06 19:15:27;;;;;;;;;13.75;12.00;;;;;27.56;42.96;101923.69;4944100;28;45316;-59
2021/09/06 19:17:52;;;;;;;;;14.00;14.00;;;;;27.51;42.88;101929.66;4943371;28;45367;-60
2021/09/06 19:20:18;;;;;;;;;16.75;15.25;;;;;27.48;42.96;101929.13;4940577;28;45231;-59
2021/09/06 19:22:43;;;;;;;;;18.00;16.00;;;;;27.44;43.42;101931.34;4934735;28;45287;-59
2021/09/06 19:25:10;;;;;;;;;13.00;12.25;;;;;27.41;43.60;101925.41;4943254;28;45367;-59
2021/09/06 19:27:37;;;;;;;;;13.50;13.50;;;;;27.37;43.74;101935.75;4943602;28;45283;-58
2021/09/06 19:30:04;;;;;;;;;12.00;12.00;;;;;27.33;44.08;101933.56;4943746;28;45514;-61
2021/09/06 19:32:29;;;;;;;;;13.00;12.75;;;;;27.31;43.80;101939.13;4943253;28;45397;-56
2021/09/06 19:34:55;;;;;;;;;14.50;10.75;;;;;27.26;44.07;101945.09;4943765;28;45316;-59
2021/09/06 19:37:20;;;;;;;;;11.75;11.00;;;;;27.23;44.03;101947.28;4943806;28;46468;-59
2021/09/06 19:39:46;;;;;;;;;17.75;14.25;;;;;27.17;44.38;101937.97;4943326;28;45454;-61
2021/09/06 19:42:12;;;;;;;;;15.25;13.00;;;;;27.14;44.10;101951.00;4943810;28;45343;-59
2021/09/06 19:44:37;;;;;;;;;13.00;12.00;;;;;27.11;44.43;101952.19;4943894;28;45351;-60
2021/09/06 19:47:03;;;;;;;;;15.25;14.75;;;;;27.08;44.73;101943.56;4949079;28;46759;-60
2021/09/06 19:49:31;;;;;;;;;15.25;14.75;;;;;27.05;44.80;101950.16;4942555;28;45240;-59
2021/09/06 19:51:57;;;;;;;;;17.75;14.75;;;;;27.03;44.72;101945.91;4943254;28;45516;-60
2021/09/06 19:54:23;;;;;;;;;14.00;13.00;;;;;26.97;45.04;101942.88;4946841;28;45443;-60
2021/09/06 19:56:48;;;;;;;;;17.00;13.75;;;;;26.95;44.63;101949.47;4940586;28;46013;-61
2021/09/06 19:59:14;;;;;;;;;14.25;13.00;;;;;26.89;44.58;101942.03;4942955;28;45485;-60
2021/09/06 20:01:41;;;;;;;;;13.75;11.00;;;;;26.85;44.44;101948.75;4950494;28;45331;-61
2021/09/06 20:04:07;;;;;;;;;12.50;9.25;;;;;26.82;44.90;101949.13;4949883;28;45331;-59
2021/09/06 20:06:33;;;;;;;;;10.50;10.25;;;;;26.78;44.71;101948.63;4950398;28;45489;-59
2021/09/06 20:09:00;;;;;;;;;15.00;11.75;;;;;26.74;44.93;101941.84;4944591;28;45453;-59
2021/09/06 20:11:25;;;;;;;;;12.00;12.00;;;;;26.70;44.97;101940.47;4945789;28;45475;-59
2021/09/06 20:13:51;;;;;;;;;14.75;10.25;;;;;26.67;44.73;101943.50;4947963;28;45341;-59
2021/09/06 20:16:17;;;;;;;;;12.75;12.75;;;;;26.61;45.04;101936.06;4944475;28;45476;-59
2021/09/06 20:18:43;;;;;;;;;14.75;10.25;;;;;26.58;44.95;101945.38;4943170;28;45419;-60
2021/09/06 20:21:10;;;;;;;;;11.00;10.00;;;;;26.54;44.64;101949.41;4946036;28;45332;-61
2021/09/06 20:23:36;;;;;;;;;10.50;9.00;;;;;26.50;44.65;101945.34;4947728;28;45578;-59
2021/09/06 20:26:02;;;;;;;;;12.50;11.00;;;;;26.44;44.68;101949.56;4946506;28;45494;-60
2021/09/06 20:28:28;;;;;;;;;11.75;9.00;;;;;26.41;45.09;101947.19;4947380;28;45327;-60
2021/09/06 20:30:53;;;;;;;;;11.00;10.00;;;;;26.37;44.69;101953.88;4945922;28;45473;-60
2021/09/06 20:33:19;;;;;;;;;11.25;9.50;;;;;26.35;44.50;101957.78;4944110;28;45629;-61
2021/09/06 20:35:44;;;;;;;;;9.75;9.00;;;;;26.32;44.61;101961.66;4947021;28;45294;-58
2021/09/06 20:38:10;;;;;;;;;12.25;10.50;;;;;26.29;44.53;101963.84;4947349;28;45551;-59
2021/09/06 20:40:35;;;;;;;;;12.75;10.00;;;;;26.28;44.75;101954.03;4946855;28;45493;-61
2021/09/06 20:43:01;;;;;;;;;10.00;9.75;;;;;26.23;44.64;101961.78;4947452;28;45597;-60
2021/09/06 20:45:26;;;;;;;;;12.75;10.00;;;;;26.20;44.52;101951.31;4946604;28;46191;-60
2021/09/06 20:47:52;;;;;;;;;9.50;9.50;;;;;26.17;44.34;101955.19;4944361;28;45390;-60
2021/09/06 20:50:17;;;;;;;;;11.50;9.00;;;;;26.14;44.36;101960.91;4942680;28;45350;-59
2021/09/06 20:52:43;;;;;;;;;9.50;9.00;;;;;26.12;44.63;101961.06;4942265;28;45439;-59
2021/09/06 20:55:09;;;;;;;;;11.75;10.75;;;;;26.11;44.73;101955.84;4941224;28;45752;-58
2021/09/06 20:57:34;;;;;;;;;9.50;9.50;;;;;26.08;44.62;101950.78;4942544;28;45314;-58
2021/09/06 21:00:00;;;;;;;;;10.75;9.00;;;;;26.05;44.40;101956.47;4942484;28;45529;-58
2021/09/06 21:02:25;;;;;;;;;13.75;10.75;;;;;26.03;44.35;101963.91;4942515;28;45432;-60
2021/09/06 21:04:51;;;;;;;;;12.00;12.00;;;;;25.99;44.51;101963.41;4941932;28;46005;-59
2021/09/06 21:07:17;;;;;;;;;13.50;12.25;;;;;25.96;44.70;101962.88;4942422;28;45272;-60
2021/09/06 21:09:42;;;;;;;;;13.25;12.25;;;;;25.92;44.57;101969.63;4941913;28;45505;-60
2021/09/06 21:12:08;;;;;;;;;31.50;26.00;;;;;25.87;44.31;101965.53;4942611;28;45486;-60
2021/09/06 21:14:33;;;;;;;;;50.75;41.50;;;;;25.81;44.21;101959.91;4941752;28;45332;-60
2021/09/06 21:16:59;;;;;;;;;45.00;34.50;;;;;25.78;43.95;101965.66;4942174;28;45366;-61
2021/09/06 21:19:24;;;;;;;;;39.25;33.75;;;;;25.76;44.34;101951.47;4942082;28;45466;-62
2021/09/06 21:21:50;;;;;;;;;34.50;27.25;;;;;25.74;44.42;101951.59;4942450;28;45270;-60
2021/09/06 21:24:16;;;;;;;;;30.50;21.75;;;;;25.71;44.19;101957.34;4941218;28;45450;-59
2021/09/06 21:26:41;;;;;;;;;16.25;16.25;;;;;25.69;43.73;101950.41;4924915;28;45410;-59
2021/09/06 21:29:07;;;;;;;;;15.00;13.50;;;;;25.67;44.20;101955.94;4942218;28;45411;-59
2021/09/06 21:31:32;;;;;;;;;14.00;12.00;;;;;25.66;43.88;101953.38;4942153;28;45304;-59
2021/09/06 21:33:58;;;;;;;;;13.25;11.25;;;;;25.65;43.66;101951.69;4941771;28;45857;-59
2021/09/06 21:36:24;;;;;;;;;13.00;10.00;;;;;25.63;43.89;101961.81;4941911;28;45403;-60
2021/09/06 21:38:50;;;;;;;;;9.25;9.00;;;;;25.60;44.01;101958.44;4941802;28;45423;-58
2021/09/06 21:41:16;;;;;;;;;9.00;7.75;;;;;25.57;43.50;101955.19;4943093;28;45513;-59
2021/09/06 21:43:42;;;;;;;;;10.50;10.25;;;;;25.53;44.10;101961.94;4945342;28;45689;-58
2021/09/06 21:46:07;;;;;;;;;12.75;10.00;;;;;25.51;44.21;101959.38;4945090;28;45259;-60
2021/09/06 21:48:33;;;;;;;;;7.75;7.00;;;;;25.48;44.32;101958.84;4943987;28;45442;-59
2021/09/06 21:50:59;;;;;;;;;15.75;14.00;;;;;25.45;43.83;101951.94;4945340;28;45336;-61
2021/09/06 21:53:28;;;;;;;;;8.25;7.25;;;;;25.42;43.85;101954.09;4944356;28;45367;-60
2021/09/06 21:55:54;;;;;;;;;11.75;10.75;;;;;25.39;43.66;101960.66;4944538;28;45737;-58
2021/09/06 21:58:20;;;;;;;;;9.25;8.75;;;;;25.37;43.84;101957.28;4943897;28;45363;-60
2021/09/06 22:00:46;;;;;;;;;9.25;7.25;;;;;25.34;43.36;101961.13;4945567;28;45197;-59
2021/09/06 22:03:15;;;;;;;;;13.25;12.00;;;;;25.30;43.71;101959.75;4944725;28;45520;-60
2021/09/06 22:05:41;;;;;;;;;10.00;9.50;;;;;25.27;43.82;101954.66;4944848;28;45362;-59
2021/09/06 22:08:07;;;;;;;;;11.50;10.75;;;;;25.24;44.23;101949.59;4944742;28;45519;-60
2021/09/06 22:10:33;;;;;;;;;11.25;10.00;;;;;25.22;43.78;101953.47;4945184;28;45276;-60
2021/09/06 22:12:59;;;;;;;;;13.00;9.25;;;;;25.19;43.99;101946.50;4944669;28;45955;-60
2021/09/06 22:15:24;;;;;;;;;11.25;9.50;;;;;25.17;44.28;101950.38;4944940;28;45385;-60
2021/09/06 22:17:50;;;;;;;;;11.50;10.00;;;;;25.13;44.00;101952.56;4944897;28;45261;-61
2021/09/06 22:20:15;;;;;;;;;12.00;11.00;;;;;25.09;43.68;101945.75;4945415;28;45248;-60
2021/09/06 22:22:41;;;;;;;;;10.00;9.75;;;;;25.07;44.23;101955.88;4944617;28;46069;-61
2021/09/06 22:25:08;;;;;;;;;10.75;10.75;;;;;25.05;44.20;101941.69;4944151;28;45320;-61
2021/09/06 22:27:34;;;;;;;;;11.00;9.00;;;;;25.02;43.60;101956.28;4944350;28;45437;-59
2021/09/06 22:30:11;;;;;;;;;11.50;9.50;;;;;24.99;43.55;101956.59;4945025;28;45498;-60
2021/09/06 22:32:39;;;;;;;;;12.00;10.25;;;;;24.97;43.83;101960.47;4944309;28;46249;-59
2021/09/06 22:35:05;;;;;;;;;9.50;9.50;;;;;24.94;43.96;101955.38;4944444;28;45448;-60
2021/09/06 22:37:31;;;;;;;;;11.50;10.50;;;;;24.93;43.59;101953.69;4944498;28;45523;-59
2021/09/06 22:39:56;;;;;;;;;11.00;8.75;;;;;24.87;43.65;101951.59;4944564;28;45296;-60
2021/09/06 22:42:22;;;;;;;;;12.00;9.50;;;;;24.83;43.69;101950.22;4944414;28;45345;-59
2021/09/06 22:44:48;;;;;;;;;12.00;10.75;;;;;24.78;44.17;101954.22;4944319;28;45369;-59
2021/09/06 22:47:13;;;;;;;;;10.25;9.25;;;;;24.76;44.37;101956.22;4944365;28;45386;-62
2021/09/06 22:49:39;;;;;;;;;11.25;10.00;;;;;24.72;43.86;101954.81;4944766;28;45474;-59
2021/09/06 22:52:05;;;;;;;;;11.50;10.00;;;;;24.69;44.16;101957.84;4943794;28;45952;-60
2021/09/06 22:54:31;;;;;;;;;10.50;9.75;;;;;24.68;44.16;101955.31;4943218;28;45700;-58
2021/09/06 22:56:57;;;;;;;;;12.00;10.00;;;;;24.65;44.12;101952.94;4930428;28;45592;-60
2021/09/06 22:59:23;;;;;;;;;11.00;10.00;;;;;24.62;44.51;101962.16;4927322;28;45379;-60
2021/09/06 23:01:49;;;;;;;;;10.50;9.00;;;;;24.60;44.75;101950.69;4943976;28;45767;-61
2021/09/06 23:04:14;;;;;;;;;13.25;9.75;;;;;24.59;44.74;101953.53;4944604;28;45367;-61
2021/09/06 23:06:40;;;;;;;;;11.75;10.25;;;;;24.54;44.89;101947.75;4944079;28;45471;-64
2021/09/06 23:09:06;;;;;;;;;10.75;10.75;;;;;24.52;45.11;101947.06;4944223;28;45219;-62
2021/09/06 23:11:32;;;;;;;;;10.00;8.25;;;;;24.47;45.27;101951.03;4944282;28;45363;-62
2021/09/06 23:13:57;;;;;;;;;11.75;10.00;;;;;24.44;45.17;101958.59;4944083;28;45319;-62
2021/09/06 23:16:23;;;;;;;;;25.25;22.00;;;;;24.42;45.28;101957.91;4944140;28;45391;-64
2021/09/06 23:18:48;;;;;;;;;10.75;10.25;;;;;24.39;45.66;101955.50;4944483;28;45509;-63
2021/09/06 23:21:14;;;;;;;;;12.25;9.25;;;;;24.37;45.94;101955.66;4944046;28;45940;-61
2021/09/06 23:23:40;;;;;;;;;8.50;8.50;;;;;24.35;45.77;101949.56;4943632;28;45238;-64
2021/09/06 23:26:05;;;;;;;;;12.00;11.25;;;;;24.34;45.93;101955.13;4942836;28;45479;-63
2021/09/06 23:28:32;;;;;;;;;14.50;12.50;;;;;24.32;46.20;101951.69;4942091;28;45493;-63
2021/09/06 23:30:58;;;;;;;;;13.75;11.75;;;;;24.28;46.02;101947.59;4941655;28;46110;-62
2021/09/06 23:33:26;;;;;;;;;12.50;10.00;;;;;24.20;46.01;101943.81;4941906;28;45530;-62
2021/09/06 23:35:52;;;;;;;;;10.50;9.50;;;;;24.17;46.25;101948.63;4942257;28;45582;-62
2021/09/06 23:38:17;;;;;;;;;10.50;10.50;;;;;24.09;46.62;101943.16;4942057;28;45889;-62
2021/09/06 23:40:43;;;;;;;;;14.50;13.00;;;;;24.00;46.98;101934.13;4942866;28;45456;-63
2021/09/06 23:43:08;;;;;;;;;11.25;8.75;;;;;23.97;46.70;101939.00;4943926;28;45222;-63
2021/09/06 23:45:34;;;;;;;;;17.75;13.00;;;;;23.94;47.49;101943.69;4943924;28;45279;-62
2021/09/06 23:47:59;;;;;;;;;11.50;11.00;;;;;23.88;47.53;101938.88;4944074;28;45561;-62
2021/09/06 23:50:25;;;;;;;;;14.50;10.75;;;;;23.87;47.14;101936.34;4944082;28;45886;-62
2021/09/06 23:52:51;;;;;;;;;11.00;10.00;;;;;23.86;47.49;101934.66;4943595;28;45363;-62
2021/09/06 23:55:16;;;;;;;;;14.00;11.75;;;;;23.84;47.41;101929.41;4943781;28;45408;-62
2021/09/06 23:57:42;;;;;;;;;14.25;11.25;;;;;23.84;47.17;101928.56;4943815;28;45319;-62
